Time;durP1;ratioP1;P1;durP2;ratioP2;P2;SDS_P1;SDS_P2;PMS_P1;PMS_P2;Temp;Humidity;BMP_temperature;BMP_pressure;BME280_temperature;BME280_humidity;BME280_pressure;Samples;Min_cycle;Max_cycle;Signal;HPM_P1;HPM_P2
2022/10/12 00:01:45;;;;;;;;;;;11.10;99.90;;;;;;5036224;28;19951;-74
2022/10/12 00:04:11;;;;;;;;;;;11.10;99.90;;;;;;5036216;28;19920;-71
2022/10/12 00:06:37;;;;;;;;;;;11.10;99.90;;;;;;5036197;28;19916;-71
2022/10/12 00:09:02;;;;;;;;;;;11.10;99.90;;;;;;5036212;28;19928;-71
2022/10/12 00:11:28;;;;;;;;;;;11.10;99.90;;;;;;5036082;28;20358;-71
2022/10/12 00:13:54;;;;;;;;;;;11.00;99.90;;;;;;5036228;28;19913;-71
2022/10/12 00:16:21;;;;;;;;;;;10.90;99.90;;;;;;5036098;28;19905;-71
2022/10/12 00:18:54;;;;;;;;;;;10.80;99.90;;;;;;5035878;28;19905;-71
2022/10/12 00:21:20;;;;;;;;;;;10.70;99.90;;;;;;5036058;28;19905;-71
2022/10/12 00:23:46;;;;;;;;;;;10.70;99.90;;;;;;5035858;28;19992;-71
2022/10/12 00:26:13;;;;;;;;;;;10.70;99.90;;;;;;5036185;28;20012;-71
2022/10/12 00:28:39;;;;;;;;;;;10.70;99.90;;;;;;5035863;28;19933;-71
2022/10/12 00:31:09;;;;;;;;;;;10.70;99.90;;;;;;5035794;28;19920;-71
2022/10/12 00:33:36;;;;;;;;;;;10.70;99.90;;;;;;5035491;28;19958;-71
2022/10/12 00:36:09;;;;;;;;;;;10.70;99.90;;;;;;5036016;28;19913;-71
2022/10/12 00:38:35;;;;;;;;;;;10.80;99.90;;;;;;5035685;28;19991;-71
2022/10/12 00:41:00;;;;;;;;;;;10.80;99.90;;;;;;5035540;28;20136;-71
2022/10/12 00:43:33;;;;;;;;;;;10.80;99.90;;;;;;5035502;28;19940;-71
2022/10/12 00:46:00;;;;;;;;;;;10.90;99.90;;;;;;5035804;28;19975;-71
2022/10/12 00:48:25;;;;;;;;;;;10.90;99.90;;;;;;5035512;28;19912;-71
2022/10/12 00:50:52;;;;;;;;;;;10.90;99.90;;;;;;5035435;28;19909;-71
2022/10/12 00:53:20;;;;;;;;;;;10.90;99.90;;;;;;5035348;28;19992;-71
2022/10/12 00:55:47;;;;;;;;;;;10.90;99.90;;;;;;5034429;28;20005;-71
2022/10/12 00:58:13;;;;;;;;;;;10.90;99.90;;;;;;5035568;28;20353;-71
2022/10/12 01:00:39;;;;;;;;;;;11.00;99.90;;;;;;5034754;28;20003;-71
2022/10/12 01:03:06;;;;;;;;;;;11.00;99.90;;;;;;5034891;28;19916;-71
2022/10/12 01:05:32;;;;;;;;;;;11.00;99.90;;;;;;5035093;28;19916;-71
2022/10/12 01:07:59;;;;;;;;;;;11.00;99.90;;;;;;5035374;28;19909;-71
2022/10/12 01:10:25;;;;;;;;;;;10.90;99.90;;;;;;5034976;28;19909;-71
2022/10/12 01:12:51;;;;;;;;;;;10.90;99.90;;;;;;5034967;28;20230;-71
2022/10/12 01:15:16;;;;;;;;;;;10.90;99.90;;;;;;5034954;28;19913;-71
2022/10/12 01:17:48;;;;;;;;;;;10.90;99.90;;;;;;5034653;28;20335;-71
2022/10/12 01:20:27;;;;;;;;;;;10.90;99.90;;;;;;5034862;28;19905;-71
2022/10/12 01:23:20;;;;;;;;;;;10.90;99.90;;;;;;5035150;28;20265;-71
2022/10/12 01:25:54;;;;;;;;;;;10.80;99.90;;;;;;5035082;28;19928;-71
2022/10/12 01:28:41;;;;;;;;;;;10.80;99.90;;;;;;5034703;28;19905;-71
2022/10/12 01:31:19;;;;;;;;;;;10.70;99.90;;;;;;5034931;28;19909;-71
2022/10/12 01:33:49;;;;;;;;;;;10.70;99.90;;;;;;5034234;28;20349;-71
2022/10/12 01:36:22;;;;;;;;;;;10.70;99.90;;;;;;5034868;28;19913;-71
2022/10/12 01:39:07;;;;;;;;;;;10.70;99.90;;;;;;5034800;28;19913;-71
2022/10/12 01:41:44;;;;;;;;;;;10.70;99.90;;;;;;5033391;28;20280;-71
2022/10/12 01:44:09;;;;;;;;;;;10.70;99.90;;;;;;5033046;28;19905;-71
2022/10/12 01:46:38;;;;;;;;;;;10.70;99.90;;;;;;5034693;28;19916;-71
2022/10/12 01:49:03;;;;;;;;;;;10.70;99.90;;;;;;5034145;28;19915;-71
2022/10/12 01:51:32;;;;;;;;;;;10.70;99.90;;;;;;5032984;28;20015;-71
2022/10/12 01:54:09;;;;;;;;;;;10.70;99.90;;;;;;5034093;28;19916;-71
2022/10/12 01:56:40;;;;;;;;;;;10.70;99.90;;;;;;5034250;28;19905;-71
2022/10/12 01:59:15;;;;;;;;;;;10.70;99.90;;;;;;5034701;28;19905;-71
2022/10/12 02:01:42;;;;;;;;;;;10.70;99.90;;;;;;5034466;28;19959;-71
2022/10/12 02:04:14;;;;;;;;;;;10.70;99.90;;;;;;5033754;28;19905;-71
2022/10/12 02:06:42;;;;;;;;;;;10.70;99.90;;;;;;5034107;28;20376;-71
2022/10/12 02:09:15;;;;;;;;;;;10.70;99.90;;;;;;5033979;28;20277;-71
2022/10/12 02:11:41;;;;;;;;;;;10.70;99.90;;;;;;5034172;28;20355;-71
2022/10/12 02:14:12;;;;;;;;;;;10.70;99.90;;;;;;5034336;28;19913;-71
2022/10/12 02:16:45;;;;;;;;;;;10.70;99.90;;;;;;5033953;28;20011;-71
2022/10/12 02:19:12;;;;;;;;;;;10.60;99.90;;;;;;5033658;28;20281;-71
2022/10/12 02:21:38;;;;;;;;;;;10.50;99.90;;;;;;5033792;28;19947;-71
2022/10/12 02:24:05;;;;;;;;;;;10.50;99.90;;;;;;5034038;28;19927;-71
2022/10/12 02:26:32;;;;;;;;;;;10.40;99.90;;;;;;5033783;28;19909;-71
2022/10/12 02:29:00;;;;;;;;;;;10.40;99.90;;;;;;5032402;28;20276;-71
2022/10/12 02:31:25;;;;;;;;;;;10.30;99.90;;;;;;5033733;28;20008;-71
2022/10/12 02:34:09;;;;;;;;;;;10.20;99.90;;;;;;5033299;28;20000;-71
2022/10/12 02:36:53;;;;;;;;;;;10.20;99.90;;;;;;5034019;28;19912;-71
2022/10/12 02:39:22;;;;;;;;;;;10.30;99.90;;;;;;5033557;28;19992;-71
2022/10/12 02:41:53;;;;;;;;;;;10.30;99.90;;;;;;5033759;28;20449;-71
2022/10/12 02:44:22;;;;;;;;;;;10.40;99.90;;;;;;5033973;28;19905;-71
2022/10/12 02:46:48;;;;;;;;;;;10.40;99.90;;;;;;5033540;28;19947;-71
2022/10/12 02:49:16;;;;;;;;;;;10.40;99.90;;;;;;5033265;28;19909;-71
2022/10/12 02:51:42;;;;;;;;;;;10.50;99.90;;;;;;5033676;28;20357;-71
2022/10/12 02:54:08;;;;;;;;;;;10.50;99.90;;;;;;5033322;28;19959;-71
2022/10/12 02:56:40;;;;;;;;;;;10.50;99.90;;;;;;5033390;28;19909;-71
2022/10/12 02:59:06;;;;;;;;;;;10.50;99.90;;;;;;5033434;28;19905;-71
2022/10/12 03:01:31;;;;;;;;;;;10.50;99.90;;;;;;5033354;28;19913;-72
2022/10/12 03:03:57;;;;;;;;;;;10.40;99.90;;;;;;5033026;28;19908;-72
2022/10/12 03:06:22;;;;;;;;;;;10.40;99.90;;;;;;5033289;28;19932;-72
2022/10/12 03:08:48;;;;;;;;;;;10.30;99.90;;;;;;5033380;28;19950;-73
2022/10/12 03:11:14;;;;;;;;;;;10.40;99.90;;;;;;5033199;28;19955;-72
2022/10/12 03:13:39;;;;;;;;;;;10.40;99.90;;;;;;5033252;28;19912;-73
2022/10/12 03:16:06;;;;;;;;;;;10.40;99.90;;;;;;5033462;28;19912;-73
2022/10/12 03:18:33;;;;;;;;;;;10.40;99.90;;;;;;5032996;28;19909;-72
2022/10/12 03:20:59;;;;;;;;;;;10.40;99.90;;;;;;5033228;28;19959;-72
2022/10/12 03:23:24;;;;;;;;;;;10.40;99.90;;;;;;5033207;28;19905;-72
2022/10/12 03:25:50;;;;;;;;;;;10.30;99.90;;;;;;5037324;28;19905;-72
2022/10/12 03:28:16;;;;;;;;;;;10.30;99.90;;;;;;5036978;28;19905;-72
2022/10/12 03:30:41;;;;;;;;;;;10.30;99.90;;;;;;5036335;28;19959;-73
2022/10/12 03:33:07;;;;;;;;;;;10.30;99.90;;;;;;5036451;28;20353;-72
2022/10/12 03:35:32;;;;;;;;;;;10.30;99.90;;;;;;5035458;28;19913;-72
2022/10/12 03:37:58;;;;;;;;;;;10.30;99.90;;;;;;5036909;28;20006;-72
2022/10/12 03:40:24;;;;;;;;;;;10.30;99.90;;;;;;5036928;28;19909;-72
2022/10/12 03:42:49;;;;;;;;;;;10.30;99.90;;;;;;5036924;28;19905;-72
2022/10/12 03:45:15;;;;;;;;;;;10.30;99.90;;;;;;5036478;28;19909;-72
2022/10/12 03:47:40;;;;;;;;;;;10.30;99.90;;;;;;5036751;28;19953;-71
2022/10/12 03:50:06;;;;;;;;;;;10.30;99.90;;;;;;5036586;28;19912;-72
2022/10/12 03:52:32;;;;;;;;;;;10.30;99.90;;;;;;5036762;28;19923;-72
2022/10/12 03:54:57;;;;;;;;;;;10.30;99.90;;;;;;5036740;28;20369;-72
2022/10/12 03:57:23;;;;;;;;;;;10.30;99.90;;;;;;5035741;28;20341;-71
2022/10/12 03:59:48;;;;;;;;;;;10.30;99.90;;;;;;5036729;28;19992;-72
2022/10/12 04:02:14;;;;;;;;;;;10.30;99.90;;;;;;5036569;28;20016;-72
2022/10/12 04:04:39;;;;;;;;;;;10.40;99.90;;;;;;5036028;28;19944;-72
2022/10/12 04:07:05;;;;;;;;;;;10.40;99.90;;;;;;5036468;28;19916;-72
2022/10/12 04:09:31;;;;;;;;;;;10.40;99.90;;;;;;5036330;28;19941;-72
2022/10/12 04:11:57;;;;;;;;;;;10.40;99.90;;;;;;5034145;28;20336;-72
2022/10/12 04:14:22;;;;;;;;;;;10.40;99.90;;;;;;5033994;28;19912;-72
2022/10/12 04:16:48;;;;;;;;;;;10.40;99.90;;;;;;5034056;28;19909;-72
2022/10/12 04:19:13;;;;;;;;;;;10.40;99.90;;;;;;5033745;28;19945;-71
2022/10/12 04:21:39;;;;;;;;;;;10.40;99.90;;;;;;5035269;28;19912;-72
2022/10/12 04:24:05;;;;;;;;;;;10.40;99.90;;;;;;5035872;28;20341;-72
2022/10/12 04:26:30;;;;;;;;;;;10.40;99.90;;;;;;5035862;28;19905;-72
2022/10/12 04:28:56;;;;;;;;;;;10.40;99.90;;;;;;5035859;28;19911;-72
2022/10/12 04:31:21;;;;;;;;;;;10.40;99.90;;;;;;5035753;28;19909;-72
2022/10/12 04:33:47;;;;;;;;;;;10.40;99.90;;;;;;5035606;28;20370;-72
2022/10/12 04:36:12;;;;;;;;;;;10.40;99.90;;;;;;5034752;28;19913;-72
2022/10/12 04:38:38;;;;;;;;;;;10.40;99.90;;;;;;5036184;28;19917;-70
2022/10/12 04:41:04;;;;;;;;;;;10.40;99.90;;;;;;5035564;28;19909;-71
2022/10/12 04:43:29;;;;;;;;;;;10.40;99.90;;;;;;5035604;28;19948;-71
2022/10/12 04:45:56;;;;;;;;;;;10.40;99.90;;;;;;5035842;28;20353;-71
2022/10/12 04:48:22;;;;;;;;;;;10.30;99.90;;;;;;5035284;28;19905;-71
2022/10/12 04:50:48;;;;;;;;;;;10.30;99.90;;;;;;5034239;28;19909;-71
2022/10/12 04:53:13;;;;;;;;;;;10.30;99.90;;;;;;5035341;28;20427;-71
2022/10/12 04:55:39;;;;;;;;;;;10.30;99.90;;;;;;5035550;28;20301;-71
2022/10/12 04:58:04;;;;;;;;;;;10.30;99.90;;;;;;5034075;28;20335;-71
2022/10/12 05:00:30;;;;;;;;;;;10.30;99.90;;;;;;5034017;28;20267;-71
2022/10/12 05:02:55;;;;;;;;;;;10.30;99.90;;;;;;5033643;28;20266;-71
2022/10/12 05:05:21;;;;;;;;;;;10.30;99.90;;;;;;5035214;28;20261;-71
2022/10/12 05:07:46;;;;;;;;;;;10.30;99.90;;;;;;5035141;28;19974;-71
2022/10/12 05:10:12;;;;;;;;;;;10.30;99.90;;;;;;5033721;28;19908;-70
2022/10/12 05:12:37;;;;;;;;;;;10.30;99.90;;;;;;5034361;28;19909;-70
2022/10/12 05:15:03;;;;;;;;;;;10.30;99.90;;;;;;5034961;28;20385;-70
2022/10/12 05:17:29;;;;;;;;;;;10.30;99.90;;;;;;5033968;28;20020;-70
2022/10/12 05:19:54;;;;;;;;;;;10.30;99.90;;;;;;5034728;28;19909;-70
2022/10/12 05:22:20;;;;;;;;;;;10.30;99.90;;;;;;5033657;28;19999;-70
2022/10/12 05:24:45;;;;;;;;;;;10.30;99.90;;;;;;5033507;28;19959;-70
2022/10/12 05:27:11;;;;;;;;;;;10.30;99.90;;;;;;5034760;28;19917;-70
2022/10/12 05:29:36;;;;;;;;;;;10.30;99.90;;;;;;5033546;28;19909;-70
2022/10/12 05:32:02;;;;;;;;;;;10.30;99.90;;;;;;5035161;28;19913;-70
2022/10/12 05:34:27;;;;;;;;;;;10.30;99.90;;;;;;5033010;28;19952;-70
2022/10/12 05:36:54;;;;;;;;;;;10.30;99.90;;;;;;5033204;28;20292;-70
2022/10/12 05:39:19;;;;;;;;;;;10.30;99.90;;;;;;5034851;28;19912;-70
2022/10/12 05:41:45;;;;;;;;;;;10.30;99.90;;;;;;5034763;28;19909;-70
2022/10/12 05:44:10;;;;;;;;;;;10.30;99.90;;;;;;5034440;28;19905;-70
2022/10/12 05:46:36;;;;;;;;;;;10.30;99.90;;;;;;5034915;28;19916;-70
2022/10/12 05:49:01;;;;;;;;;;;10.30;99.90;;;;;;5032856;28;19925;-70
2022/10/12 05:51:27;;;;;;;;;;;10.30;99.90;;;;;;5034862;28;20381;-70
2022/10/12 05:53:52;;;;;;;;;;;10.30;99.90;;;;;;5034721;28;20411;-70
2022/10/12 05:56:18;;;;;;;;;;;10.30;99.90;;;;;;5034790;28;19917;-70
2022/10/12 05:58:43;;;;;;;;;;;10.30;99.90;;;;;;5032978;28;19909;-70
2022/10/12 06:01:10;;;;;;;;;;;10.30;99.90;;;;;;5034159;28;19916;-70
2022/10/12 06:03:37;;;;;;;;;;;10.30;99.90;;;;;;5033739;28;19928;-70
2022/10/12 06:06:03;;;;;;;;;;;10.30;99.90;;;;;;5034406;28;19905;-70
2022/10/12 06:08:30;;;;;;;;;;;10.30;99.90;;;;;;5034031;28;20324;-70
2022/10/12 06:10:55;;;;;;;;;;;10.30;99.90;;;;;;5034108;28;19905;-70
2022/10/12 06:13:21;;;;;;;;;;;10.30;99.90;;;;;;5033894;28;19956;-70
2022/10/12 06:15:47;;;;;;;;;;;10.20;99.90;;;;;;5033855;28;19913;-70
2022/10/12 06:18:13;;;;;;;;;;;10.20;99.90;;;;;;5032692;28;19913;-70
2022/10/12 06:20:38;;;;;;;;;;;10.20;99.90;;;;;;5033859;28;19909;-70
2022/10/12 06:23:04;;;;;;;;;;;10.30;99.90;;;;;;5032852;28;19909;-70
2022/10/12 06:25:29;;;;;;;;;;;10.30;99.90;;;;;;5033725;28;19913;-70
2022/10/12 06:27:55;;;;;;;;;;;10.30;99.90;;;;;;5032504;28;19915;-70
2022/10/12 06:30:20;;;;;;;;;;;10.30;99.90;;;;;;5033679;28;19909;-70
2022/10/12 06:32:46;;;;;;;;;;;10.30;99.90;;;;;;5033607;28;19936;-71
2022/10/12 06:35:12;;;;;;;;;;;10.30;99.90;;;;;;5033413;28;19970;-70
2022/10/12 06:37:37;;;;;;;;;;;10.30;99.90;;;;;;5033694;28;19924;-70
2022/10/12 06:40:04;;;;;;;;;;;10.40;99.90;;;;;;5033848;28;19974;-70
2022/10/12 06:42:30;;;;;;;;;;;10.40;99.90;;;;;;5033809;28;20261;-70
2022/10/12 06:44:55;;;;;;;;;;;10.40;99.90;;;;;;5033575;28;19905;-70
2022/10/12 06:47:21;;;;;;;;;;;10.40;99.90;;;;;;5033787;28;19905;-70
2022/10/12 06:49:47;;;;;;;;;;;10.40;99.90;;;;;;5033273;28;19909;-70
2022/10/12 06:52:12;;;;;;;;;;;10.50;99.90;;;;;;5033683;28;19913;-71
2022/10/12 06:54:38;;;;;;;;;;;10.50;99.90;;;;;;5032087;28;20008;-71
2022/10/12 06:57:04;;;;;;;;;;;10.50;99.90;;;;;;5033502;28;19943;-70
2022/10/12 06:59:29;;;;;;;;;;;10.50;99.90;;;;;;5034100;28;19916;-70
2022/10/12 07:01:55;;;;;;;;;;;10.50;99.90;;;;;;5037833;28;20280;-70
2022/10/12 07:04:20;;;;;;;;;;;10.60;99.90;;;;;;5037229;28;19920;-70
2022/10/12 07:06:46;;;;;;;;;;;10.60;99.90;;;;;;5037419;28;20047;-70
2022/10/12 07:09:12;;;;;;;;;;;10.70;99.90;;;;;;5037327;28;19920;-70
2022/10/12 07:11:37;;;;;;;;;;;10.70;99.90;;;;;;5037344;28;19909;-70
2022/10/12 07:14:03;;;;;;;;;;;10.70;99.90;;;;;;5037154;28;19913;-70
2022/10/12 07:16:28;;;;;;;;;;;10.70;99.90;;;;;;5037191;28;19916;-70
2022/10/12 07:18:54;;;;;;;;;;;10.80;99.90;;;;;;5037036;28;19952;-70
2022/10/12 07:21:19;;;;;;;;;;;10.80;99.90;;;;;;5037706;28;19916;-70
2022/10/12 07:23:45;;;;;;;;;;;10.90;99.90;;;;;;5036917;28;19909;-70
2022/10/12 07:26:11;;;;;;;;;;;10.90;99.90;;;;;;5037020;28;19909;-70
2022/10/12 07:28:36;;;;;;;;;;;10.90;99.90;;;;;;5037593;28;19916;-70
2022/10/12 07:31:06;;;;;;;;;;;10.90;99.90;;;;;;5036923;28;19955;-70
2022/10/12 07:33:32;;;;;;;;;;;11.00;99.90;;;;;;5036602;28;19905;-71
2022/10/12 07:35:59;;;;;;;;;;;11.00;99.90;;;;;;5036876;28;19939;-70
2022/10/12 07:38:24;;;;;;;;;;;11.00;99.90;;;;;;5035504;28;19913;-70
2022/10/12 07:40:50;;;;;;;;;;;11.10;99.90;;;;;;5036971;28;19915;-70
2022/10/12 07:43:16;;;;;;;;;;;11.10;99.90;;;;;;5036822;28;19909;-70
2022/10/12 07:45:41;;;;;;;;;;;11.20;99.90;;;;;;5037203;28;20361;-71
2022/10/12 07:48:07;;;;;;;;;;;11.20;99.90;;;;;;5036886;28;19909;-71
2022/10/12 07:50:32;;;;;;;;;;;11.30;99.90;;;;;;5036297;28;19998;-70
2022/10/12 07:52:58;;;;;;;;;;;11.30;99.90;;;;;;5036758;28;19909;-70
2022/10/12 07:55:24;;;;;;;;;;;11.40;99.90;;;;;;5035190;28;20016;-70
2022/10/12 07:57:49;;;;;;;;;;;11.50;99.90;;;;;;5036460;28;19909;-70
2022/10/12 08:00:15;;;;;;;;;;;11.50;99.90;;;;;;5036891;28;19909;-70
2022/10/12 08:02:40;;;;;;;;;;;11.60;99.90;;;;;;5036301;28;19979;-71
2022/10/12 08:05:06;;;;;;;;;;;11.70;99.90;;;;;;5036128;28;19948;-70
2022/10/12 08:07:32;;;;;;;;;;;11.80;99.90;;;;;;5036132;28;19908;-71
2022/10/12 08:09:57;;;;;;;;;;;11.90;99.90;;;;;;5034642;28;19905;-71
2022/10/12 08:12:23;;;;;;;;;;;11.90;99.90;;;;;;5036159;28;19909;-71
2022/10/12 08:14:48;;;;;;;;;;;12.00;99.90;;;;;;5035786;28;19916;-70
2022/10/12 08:17:14;;;;;;;;;;;12.00;99.90;;;;;;5036131;28;19955;-70
2022/10/12 08:19:39;;;;;;;;;;;12.10;99.90;;;;;;5034856;28;20384;-71
2022/10/12 08:22:05;;;;;;;;;;;12.20;99.90;;;;;;5035966;28;20424;-71
2022/10/12 08:24:31;;;;;;;;;;;12.30;99.90;;;;;;5035976;28;19909;-70
2022/10/12 08:26:56;;;;;;;;;;;12.40;99.90;;;;;;5035916;28;19909;-70
2022/10/12 08:29:22;;;;;;;;;;;12.50;99.90;;;;;;5036113;28;19999;-71
2022/10/12 08:31:50;;;;;;;;;;;12.50;99.90;;;;;;5034573;28;20389;-70
2022/10/12 08:34:16;;;;;;;;;;;12.60;99.90;;;;;;5035324;28;19971;-70
2022/10/12 08:36:41;;;;;;;;;;;12.80;99.90;;;;;;5035661;28;20326;-71
2022/10/12 08:39:07;;;;;;;;;;;12.80;99.90;;;;;;5035994;28;19913;-70
2022/10/12 08:41:45;;;;;;;;;;;12.80;99.90;;;;;;5035651;28;19912;-70
2022/10/12 08:44:16;;;;;;;;;;;12.90;99.90;;;;;;5035630;28;20362;-70
2022/10/12 08:46:42;;;;;;;;;;;12.90;99.90;;;;;;5035607;28;19909;-70
2022/10/12 08:49:10;;;;;;;;;;;12.90;99.90;;;;;;5035314;28;19955;-70
2022/10/12 08:51:43;;;;;;;;;;;12.90;99.90;;;;;;5035828;28;19905;-70
2022/10/12 08:54:13;;;;;;;;;;;12.90;99.90;;;;;;5034113;28;19916;-70
2022/10/12 08:56:40;;;;;;;;;;;13.00;99.90;;;;;;5035427;28;20272;-70
2022/10/12 08:59:08;;;;;;;;;;;13.00;99.90;;;;;;5035321;28;19947;-70
2022/10/12 09:02:03;;;;;;;;;;;13.00;99.90;;;;;;5035561;28;19952;-70
2022/10/12 09:04:47;;;;;;;;;;;13.00;99.90;;;;;;5030330;28;19912;-70
2022/10/12 09:07:27;;;;;;;;;;;13.10;99.90;;;;;;5035149;28;19909;-70
2022/10/12 09:09:56;;;;;;;;;;;13.10;99.90;;;;;;5035605;28;19905;-71
2022/10/12 09:12:24;;;;;;;;;;;13.10;99.90;;;;;;5035304;28;19912;-70
2022/10/12 09:14:51;;;;;;;;;;;13.10;99.90;;;;;;5034947;28;19909;-70
2022/10/12 09:17:22;;;;;;;;;;;13.20;99.90;;;;;;5035065;28;20284;-70
2022/10/12 09:19:52;;;;;;;;;;;13.20;99.90;;;;;;5034719;28;19905;-71
2022/10/12 09:22:18;;;;;;;;;;;13.20;99.90;;;;;;5034546;28;19912;-71
2022/10/12 09:24:46;;;;;;;;;;;13.20;99.90;;;;;;5034925;28;19905;-69
2022/10/12 09:27:13;;;;;;;;;;;13.30;99.90;;;;;;5035384;28;20280;-70
2022/10/12 09:29:39;;;;;;;;;;;13.40;99.90;;;;;;5035017;28;19951;-70
2022/10/12 09:32:07;;;;;;;;;;;13.50;99.90;;;;;;5035167;28;19948;-71
2022/10/12 09:34:33;;;;;;;;;;;13.70;99.90;;;;;;5034356;28;19916;-71
2022/10/12 09:37:01;;;;;;;;;;;13.70;99.90;;;;;;5034458;28;19913;-70
2022/10/12 09:39:34;;;;;;;;;;;13.70;99.90;;;;;;5033307;28;19906;-70
2022/10/12 09:42:00;;;;;;;;;;;13.70;99.90;;;;;;5034440;28;19905;-71
2022/10/12 09:44:26;;;;;;;;;;;13.60;99.90;;;;;;5034496;28;20361;-70
2022/10/12 09:46:57;;;;;;;;;;;13.60;99.90;;;;;;5034976;28;19912;-70
2022/10/12 09:49:37;;;;;;;;;;;13.50;99.90;;;;;;5034143;28;19959;-70
2022/10/12 09:52:03;;;;;;;;;;;13.50;99.90;;;;;;5034583;28;19912;-71
2022/10/12 09:54:28;;;;;;;;;;;13.60;99.90;;;;;;5033327;28;19913;-70
2022/10/12 09:56:54;;;;;;;;;;;13.70;99.90;;;;;;5032974;28;19970;-70
2022/10/12 09:59:27;;;;;;;;;;;13.80;99.90;;;;;;5034258;28;20251;-70
2022/10/12 10:01:56;;;;;;;;;;;14.00;99.90;;;;;;5034178;28;19908;-70
2022/10/12 10:04:23;;;;;;;;;;;14.10;99.90;;;;;;5034059;28;20411;-70
2022/10/12 10:06:49;;;;;;;;;;;14.20;99.90;;;;;;5034415;28;19958;-70
2022/10/12 10:09:25;;;;;;;;;;;14.20;99.90;;;;;;5034011;28;19912;-71
2022/10/12 10:11:51;;;;;;;;;;;14.40;99.90;;;;;;5033971;28;19912;-67
2022/10/12 10:14:16;;;;;;;;;;;14.50;99.90;;;;;;5033856;28;20297;-70
2022/10/12 10:16:46;;;;;;;;;;;14.60;99.90;;;;;;5034191;28;19909;-70
2022/10/12 10:19:15;;;;;;;;;;;14.70;99.90;;;;;;5033838;28;19905;-70
2022/10/12 10:21:40;;;;;;;;;;;14.80;99.90;;;;;;5033988;28;19955;-70
2022/10/12 10:24:17;;;;;;;;;;;14.90;99.90;;;;;;5032408;28;19916;-70
2022/10/12 10:26:50;;;;;;;;;;;15.10;99.90;;;;;;5034373;28;19949;-70
2022/10/12 10:29:29;;;;;;;;;;;15.20;99.90;;;;;;5032491;28;19936;-70
2022/10/12 10:32:14;;;;;;;;;;;15.20;99.90;;;;;;5034019;28;19905;-70
2022/10/12 10:34:40;;;;;;;;;;;15.30;99.90;;;;;;5032074;28;19940;-70
2022/10/12 10:37:06;;;;;;;;;;;15.50;99.90;;;;;;5032412;28;19917;-71
2022/10/12 10:39:52;;;;;;;;;;;15.60;99.90;;;;;;5034252;28;19920;-70
2022/10/12 10:42:19;;;;;;;;;;;15.70;99.90;;;;;;5033279;28;19930;-70
2022/10/12 10:44:49;;;;;;;;;;;15.80;99.90;;;;;;5032313;28;20360;-70
2022/10/12 10:47:14;;;;;;;;;;;15.90;99.90;;;;;;5033914;28;20268;-70
2022/10/12 10:49:42;;;;;;;;;;;16.00;99.90;;;;;;5033524;28;19909;-70
2022/10/12 10:52:19;;;;;;;;;;;16.10;99.90;;;;;;5034032;28;20000;-70
2022/10/12 10:54:45;;;;;;;;;;;16.10;99.90;;;;;;5033699;28;19905;-70
2022/10/12 10:57:18;;;;;;;;;;;16.20;99.90;;;;;;5033489;28;19931;-70
2022/10/12 10:59:46;;;;;;;;;;;16.30;99.90;;;;;;5033434;28;19909;-69
2022/10/12 11:02:44;;;;;;;;;;;16.40;99.90;;;;;;5033667;28;20000;-70
2022/10/12 11:05:18;;;;;;;;;;;16.50;99.90;;;;;;5021192;28;20423;-70
2022/10/12 11:07:47;;;;;;;;;;;16.70;99.90;;;;;;5033379;28;19912;-70
2022/10/12 11:10:33;;;;;;;;;;;16.80;99.90;;;;;;5033321;28;19913;-70
2022/10/12 11:13:01;;;;;;;;;;;16.90;99.90;;;;;;5025139;28;19912;-69
2022/10/12 11:15:33;;;;;;;;;;;17.00;99.90;;;;;;5034131;28;19909;-70
2022/10/12 11:18:17;;;;;;;;;;;17.10;99.90;;;;;;5033562;28;20258;-70
2022/10/12 11:20:53;;;;;;;;;;;17.20;99.90;;;;;;5032852;28;19916;-70
2022/10/12 11:23:32;;;;;;;;;;;17.20;99.90;;;;;;5031673;28;19951;-69
2022/10/12 11:26:11;;;;;;;;;;;17.30;99.90;;;;;;5033377;28;19905;-71
2022/10/12 11:28:37;;;;;;;;;;;17.40;99.90;;;;;;5033180;28;20361;-70
2022/10/12 11:31:04;;;;;;;;;;;17.50;99.90;;;;;;5033161;28;19912;-70
2022/10/12 11:33:38;;;;;;;;;;;17.50;99.90;;;;;;5033316;28;19905;-70
2022/10/12 11:36:08;;;;;;;;;;;17.60;99.90;;;;;;5032730;28;19916;-71
2022/10/12 11:38:38;;;;;;;;;;;17.70;99.90;;;;;;5033006;28;19964;-71
2022/10/12 11:41:16;;;;;;;;;;;17.80;99.90;;;;;;5032877;28;19909;-71
2022/10/12 11:43:46;;;;;;;;;;;17.90;99.90;;;;;;5033288;28;19916;-71
2022/10/12 11:46:15;;;;;;;;;;;18.00;99.90;;;;;;5035649;28;20107;-71
2022/10/12 11:48:44;;;;;;;;;;;18.00;99.90;;;;;;5036428;28;19909;-70
2022/10/12 11:51:11;;;;;;;;;;;18.10;99.90;;;;;;5036373;28;19912;-70
2022/10/12 11:53:45;;;;;;;;;;;18.20;99.90;;;;;;5036522;28;19963;-70
2022/10/12 11:56:16;;;;;;;;;;;18.20;99.90;;;;;;5036598;28;19909;-70
2022/10/12 11:58:43;;;;;;;;;;;18.20;99.90;;;;;;5036483;28;19940;-70
2022/10/12 12:01:12;;;;;;;;;;;18.20;99.90;;;;;;5036811;28;19954;-70
2022/10/12 12:03:57;;;;;;;;;;;18.30;99.90;;;;;;5036571;28;19909;-71
2022/10/12 12:06:29;;;;;;;;;;;18.30;99.90;;;;;;5034402;28;19919;-71
2022/10/12 12:08:55;;;;;;;;;;;18.50;99.90;;;;;;5032794;28;20415;-71
2022/10/12 12:11:25;;;;;;;;;;;18.60;99.90;;;;;;5035098;28;20415;-70
2022/10/12 12:14:11;;;;;;;;;;;18.60;99.90;;;;;;5035979;28;19904;-71
2022/10/12 12:16:41;;;;;;;;;;;18.70;99.90;;;;;;5036024;28;19905;-71
2022/10/12 12:19:07;;;;;;;;;;;18.80;99.90;;;;;;5036193;28;19992;-71
2022/10/12 12:21:52;;;;;;;;;;;18.90;99.90;;;;;;5035815;28;20361;-71
2022/10/12 12:24:18;;;;;;;;;;;19.00;99.90;;;;;;5016101;28;20415;-71
2022/10/12 12:26:46;;;;;;;;;;;19.00;99.90;;;;;;5016510;28;19914;-70
2022/10/12 12:29:18;;;;;;;;;;;19.10;99.90;;;;;;5016164;28;19906;-70
2022/10/12 12:31:52;;;;;;;;;;;19.20;99.90;;;;;;5021815;28;20048;-71
2022/10/12 12:34:17;;;;;;;;;;;19.30;99.90;;;;;;5034410;28;19909;-71
2022/10/12 12:36:44;;;;;;;;;;;19.40;99.90;;;;;;5028366;28;19913;-71
2022/10/12 12:39:29;;;;;;;;;;;19.50;99.90;;;;;;5047118;28;19984;-71
2022/10/12 12:41:56;;;;;;;;;;;19.60;99.90;;;;;;5035927;28;19909;-71
2022/10/12 12:44:39;;;;;;;;;;;19.80;99.90;;;;;;5036007;28;20044;-71
2022/10/12 12:47:11;;;;;;;;;;;19.80;99.90;;;;;;5035660;28;19904;-71
2022/10/12 12:49:36;;;;;;;;;;;20.10;99.90;;;;;;5035618;28;20334;-71
2022/10/12 12:52:09;;;;;;;;;;;20.30;99.90;;;;;;5035730;28;19909;-71
2022/10/12 12:54:36;;;;;;;;;;;20.40;99.90;;;;;;5034889;28;19967;-70
2022/10/12 12:57:20;;;;;;;;;;;20.50;97.80;;;;;;5034700;28;19905;-71
2022/10/12 13:00:04;;;;;;;;;;;20.40;97.70;;;;;;5035607;28;19912;-71
2022/10/12 13:02:30;;;;;;;;;;;20.30;97.20;;;;;;5034035;28;19916;-71
2022/10/12 13:05:07;;;;;;;;;;;20.10;98.60;;;;;;5035283;28;19905;-71
2022/10/12 13:07:33;;;;;;;;;;;20.10;98.10;;;;;;5034857;28;20329;-72
2022/10/12 13:10:01;;;;;;;;;;;20.30;98.40;;;;;;5034839;28;19996;-71
2022/10/12 13:12:36;;;;;;;;;;;20.40;98.80;;;;;;5034377;28;20003;-71
2022/10/12 13:15:09;;;;;;;;;;;20.60;97.90;;;;;;5034147;28;19963;-71
2022/10/12 13:17:51;;;;;;;;;;;20.60;97.30;;;;;;5035320;28;19909;-71
2022/10/12 13:20:19;;;;;;;;;;;20.70;96.30;;;;;;5033895;28;19911;-70
2022/10/12 13:22:45;;;;;;;;;;;20.70;95.60;;;;;;5035105;28;19905;-70
2022/10/12 13:25:14;;;;;;;;;;;20.60;94.70;;;;;;5030902;28;20277;-67
2022/10/12 13:27:45;;;;;;;;;;;20.50;93.90;;;;;;5013445;28;20000;-71
2022/10/12 13:30:11;;;;;;;;;;;20.40;94.10;;;;;;5014417;28;19957;-71
2022/10/12 13:32:45;;;;;;;;;;;20.30;94.80;;;;;;5013876;28;19941;-70
2022/10/12 13:35:29;;;;;;;;;;;20.20;94.10;;;;;;5013999;28;19910;-70
2022/10/12 13:38:05;;;;;;;;;;;20.20;94.50;;;;;;5014114;28;19917;-69
2022/10/12 13:40:40;;;;;;;;;;;20.30;94.00;;;;;;5021046;28;20384;-70
2022/10/12 13:43:24;;;;;;;;;;;20.10;93.90;;;;;;5034494;28;20361;-70
2022/10/12 13:45:49;;;;;;;;;;;20.10;93.30;;;;;;5034673;28;20246;-70
2022/10/12 13:48:17;;;;;;;;;;;20.00;93.70;;;;;;5034330;28;19916;-69
2022/10/12 13:50:49;;;;;;;;;;;20.00;94.00;;;;;;5034101;28;19909;-70
2022/10/12 13:53:15;;;;;;;;;;;19.90;94.70;;;;;;5034307;28;19947;-70
2022/10/12 13:55:41;;;;;;;;;;;19.90;94.50;;;;;;5034223;28;19948;-70
2022/10/12 13:58:19;;;;;;;;;;;19.80;94.60;;;;;;5034293;28;19909;-70
2022/10/12 14:00:48;;;;;;;;;;;19.70;94.70;;;;;;5034789;28;20265;-68
2022/10/12 14:03:13;;;;;;;;;;;19.70;94.30;;;;;;5034167;28;20071;-69
2022/10/12 14:05:44;;;;;;;;;;;19.60;94.30;;;;;;5033948;28;19944;-68
2022/10/12 14:08:22;;;;;;;;;;;19.50;93.40;;;;;;5033853;28;19991;-69
2022/10/12 14:10:48;;;;;;;;;;;19.40;94.40;;;;;;5034055;28;19905;-70
2022/10/12 14:13:24;;;;;;;;;;;19.30;94.50;;;;;;5033914;28;19916;-67
2022/10/12 14:15:49;;;;;;;;;;;19.30;94.60;;;;;;5034169;28;20293;-69
2022/10/12 14:18:34;;;;;;;;;;;19.20;95.20;;;;;;5034255;28;19928;-69
2022/10/12 14:21:24;;;;;;;;;;;19.20;94.70;;;;;;5033733;28;20308;-70
2022/10/12 14:23:57;;;;;;;;;;;19.20;95.90;;;;;;5033852;28;19905;-69
2022/10/12 14:26:29;;;;;;;;;;;19.20;95.80;;;;;;5033843;28;20374;-69